createdAt,value
2023-07-16T00:01:07.464Z,99432.66
2023-07-16T00:03:37.139Z,99433.47
2023-07-16T00:06:07.006Z,99436.84
2023-07-16T00:08:36.743Z,99442.94
2023-07-16T00:11:06.714Z,99435.16
2023-07-16T00:13:36.420Z,99437.88
2023-07-16T00:16:06.730Z,99442.13
2023-07-16T00:18:36.377Z,99443.69
2023-07-16T00:21:05.859Z,99443.41
2023-07-16T00:23:35.772Z,99450.91
2023-07-16T00:26:05.334Z,99451.22
2023-07-16T00:28:34.818Z,99456.81
2023-07-16T00:31:04.583Z,99453.81
2023-07-16T00:33:35.884Z,99454.53
2023-07-16T00:36:05.286Z,99456.13
2023-07-16T00:38:34.636Z,99457.69
2023-07-16T00:41:04.134Z,99460.09
2023-07-16T00:43:33.036Z,99463.78
2023-07-16T00:46:02.115Z,99459.53
2023-07-16T00:48:31.638Z,99460.66
2023-07-16T00:50:59.971Z,99456.88
2023-07-16T00:53:29.500Z,99458.00
2023-07-16T00:55:59.006Z,99462.56
2023-07-16T00:58:28.325Z,99453.13
2023-07-16T01:00:58.467Z,99458.34
2023-07-16T01:03:27.717Z,99453.84
2023-07-16T01:06:11.204Z,99463.34
2023-07-16T01:08:47.340Z,99458.19
2023-07-16T01:11:15.159Z,99454.75
2023-07-16T01:13:44.964Z,99461.63
2023-07-16T01:16:24.300Z,99460.53
2023-07-16T01:18:54.168Z,99464.97
2023-07-16T01:21:23.941Z,99466.84
2023-07-16T01:23:58.026Z,99473.09
2023-07-16T01:26:51.683Z,99469.00
2023-07-16T01:29:29.426Z,99472.56
2023-07-16T01:31:59.079Z,99469.75
2023-07-16T01:34:28.298Z,99470.72
2023-07-16T01:36:57.639Z,99479.38
2023-07-16T01:39:26.811Z,99470.72
2023-07-16T01:41:56.798Z,99477.66
2023-07-16T01:44:26.301Z,99484.53
2023-07-16T01:47:13.512Z,99482.66
2023-07-16T01:49:44.247Z,99482.88
2023-07-16T01:52:14.022Z,99489.13
2023-07-16T01:54:43.416Z,99479.66
2023-07-16T01:57:13.090Z,99484.03
2023-07-16T01:59:42.444Z,99477.13
2023-07-16T02:02:12.176Z,99488.44
2023-07-16T02:04:41.151Z,99485.69
2023-07-16T02:07:10.633Z,99491.44
2023-07-16T02:09:39.804Z,99498.09
2023-07-16T02:12:09.602Z,99491.56
2023-07-16T02:14:39.158Z,99492.41
2023-07-16T02:17:08.979Z,99493.06
2023-07-16T02:19:38.426Z,99504.31
2023-07-16T02:22:08.206Z,99497.22
2023-07-16T02:24:37.322Z,99497.84
2023-07-16T02:27:08.357Z,99492.72
2023-07-16T02:29:37.289Z,99491.56
2023-07-16T02:32:07.362Z,99497.53
2023-07-16T02:34:36.667Z,99494.81
2023-07-16T02:37:06.787Z,99503.22
2023-07-16T02:39:36.135Z,99507.31
2023-07-16T02:42:05.376Z,99507.31
2023-07-16T02:44:34.848Z,99504.22
2023-07-16T02:47:06.579Z,99513.97
2023-07-16T02:49:36.579Z,99513.16
2023-07-16T02:52:09.184Z,99518.44
2023-07-16T02:54:38.811Z,99516.00
2023-07-16T02:57:08.570Z,99515.34
2023-07-16T02:59:37.659Z,99522.03
2023-07-16T03:02:07.200Z,99518.38
2023-07-16T03:04:36.748Z,99526.38
2023-07-16T03:07:07.537Z,99517.63
2023-07-16T03:09:36.750Z,99520.25
2023-07-16T03:12:11.202Z,99526.38
2023-07-16T03:14:40.221Z,99524.56
2023-07-16T03:17:09.697Z,99522.53
2023-07-16T03:19:39.561Z,99526.75
2023-07-16T03:22:13.791Z,99530.31
2023-07-16T03:24:43.381Z,99533.47
2023-07-16T03:27:18.734Z,99531.81
2023-07-16T03:29:54.592Z,99529.13
2023-07-16T03:32:29.339Z,99533.63
2023-07-16T03:35:10.402Z,99530.44
2023-07-16T03:37:39.376Z,99532.91
2023-07-16T03:40:19.931Z,99529.31
2023-07-16T03:42:49.802Z,99532.63
2023-07-16T03:45:19.337Z,99538.72
2023-07-16T03:47:48.676Z,99539.53
2023-07-16T03:50:18.009Z,99544.00
2023-07-16T03:52:47.529Z,99541.31
2023-07-16T03:55:17.116Z,99542.22
2023-07-16T03:57:46.268Z,99546.38
2023-07-16T04:00:16.379Z,99548.72
2023-07-16T04:02:55.362Z,99551.06
2023-07-16T04:05:25.105Z,99551.06
2023-07-16T04:07:54.917Z,99556.41
2023-07-16T04:10:24.506Z,99556.25
2023-07-16T04:12:54.417Z,99561.47
2023-07-16T04:15:24.367Z,99563.75
2023-07-16T04:17:54.238Z,99559.09
2023-07-16T04:20:24.220Z,99555.34
2023-07-16T04:22:54.040Z,99550.78
2023-07-16T04:25:23.834Z,99557.72
2023-07-16T04:27:53.353Z,99553.31
2023-07-16T04:30:24.107Z,99554.16
2023-07-16T04:32:53.938Z,99544.38
2023-07-16T04:35:23.646Z,99552.25
2023-07-16T04:37:53.062Z,99546.91
2023-07-16T04:40:22.563Z,99555.66
2023-07-16T04:42:52.286Z,99548.41
2023-07-16T04:45:21.623Z,99535.69
2023-07-16T04:47:51.635Z,99535.28
2023-07-16T04:50:21.401Z,99541.13
2023-07-16T04:52:51.205Z,99541.81
2023-07-16T04:55:20.882Z,99545.84
2023-07-16T04:57:50.562Z,99539.31
2023-07-16T05:00:20.221Z,99535.91
2023-07-16T05:02:49.957Z,99540.50
2023-07-16T05:05:20.192Z,99529.03
2023-07-16T05:07:49.652Z,99540.44
2023-07-16T05:10:20.328Z,99540.50
2023-07-16T05:12:49.984Z,99536.97
2023-07-16T05:15:19.964Z,99548.09
2023-07-16T05:17:49.700Z,99548.91
2023-07-16T05:20:19.640Z,99548.75
2023-07-16T05:22:50.348Z,99555.38
2023-07-16T05:25:19.810Z,99545.50
2023-07-16T05:27:49.378Z,99535.94
2023-07-16T05:30:19.813Z,99549.47
2023-07-16T05:32:49.538Z,99540.75
2023-07-16T05:35:19.713Z,99543.69
2023-07-16T05:37:49.367Z,99550.75
2023-07-16T05:40:19.377Z,99554.06
2023-07-16T05:42:49.054Z,99552.16
2023-07-16T05:45:19.101Z,99555.53
2023-07-16T05:47:48.861Z,99558.84
2023-07-16T05:50:18.967Z,99559.44
2023-07-16T05:52:49.915Z,99556.47
2023-07-16T05:55:20.379Z,99557.09
2023-07-16T05:57:49.798Z,99560.00
2023-07-16T06:00:19.508Z,99558.19
2023-07-16T06:02:49.416Z,99556.06
2023-07-16T06:05:19.811Z,99549.56
2023-07-16T06:07:49.717Z,99553.50
2023-07-16T06:10:19.658Z,99554.13
2023-07-16T06:12:49.440Z,99558.28
2023-07-16T06:15:18.969Z,99555.28
2023-07-16T06:17:48.549Z,99558.47
2023-07-16T06:20:18.906Z,99557.88
2023-07-16T06:22:48.746Z,99554.91
2023-07-16T06:25:18.825Z,99546.03
2023-07-16T06:27:48.398Z,99542.19
2023-07-16T06:30:18.560Z,99547.75
2023-07-16T06:32:48.113Z,99551.63
2023-07-16T06:35:17.873Z,99552.28
2023-07-16T06:37:49.036Z,99557.16
2023-07-16T06:40:19.226Z,99553.63
2023-07-16T06:42:49.061Z,99558.38
2023-07-16T06:45:19.954Z,99550.41
2023-07-16T06:47:51.163Z,99555.00
2023-07-16T06:50:20.929Z,99555.66
2023-07-16T06:52:50.808Z,99553.66
2023-07-16T06:55:20.439Z,99558.91
2023-07-16T06:57:50.425Z,99569.97
2023-07-16T07:00:23.254Z,99568.25
2023-07-16T07:02:53.771Z,99556.34
2023-07-16T07:05:24.010Z,99569.31
2023-07-16T07:07:53.345Z,99570.00
2023-07-16T07:10:23.492Z,99574.09
2023-07-16T07:12:53.445Z,99572.06
2023-07-16T07:15:23.418Z,99573.38
2023-07-16T07:17:53.970Z,99575.66
2023-07-16T07:20:23.523Z,99580.88
2023-07-16T07:22:53.461Z,99579.38
2023-07-16T07:25:23.017Z,99568.13
2023-07-16T07:27:52.613Z,99569.09
2023-07-16T07:30:22.459Z,99572.38
2023-07-16T07:32:52.346Z,99567.81
2023-07-16T07:35:21.882Z,99567.09
2023-07-16T07:37:51.911Z,99559.28
2023-07-16T07:40:21.911Z,99564.22
2023-07-16T07:42:52.106Z,99567.84
2023-07-16T07:45:21.957Z,99564.97
2023-07-16T07:47:51.462Z,99569.00
2023-07-16T07:50:21.353Z,99562.91
2023-07-16T07:52:51.171Z,99571.59
2023-07-16T07:55:20.885Z,99574.28
2023-07-16T07:57:51.014Z,99564.16
2023-07-16T08:00:21.105Z,99558.00
2023-07-16T08:02:51.009Z,99561.50
2023-07-16T08:05:21.668Z,99561.19
2023-07-16T08:07:51.149Z,99554.69
2023-07-16T08:10:21.718Z,99555.41
2023-07-16T08:12:51.466Z,99554.28
2023-07-16T08:15:21.372Z,99561.69
2023-07-16T08:17:51.284Z,99556.28
2023-07-16T08:20:21.430Z,99555.38
2023-07-16T08:22:51.095Z,99552.41
2023-07-16T08:25:21.248Z,99550.88
2023-07-16T08:27:50.891Z,99560.34
2023-07-16T08:30:20.900Z,99555.22
2023-07-16T08:32:50.371Z,99552.66
2023-07-16T08:35:21.836Z,99556.53
2023-07-16T08:37:51.519Z,99549.97
2023-07-16T08:40:22.463Z,99548.47
2023-07-16T08:42:52.402Z,99548.63
2023-07-16T08:45:23.584Z,99544.31
2023-07-16T08:47:53.413Z,99549.63
2023-07-16T08:50:24.342Z,99547.66
2023-07-16T08:52:53.822Z,99544.25
2023-07-16T08:55:23.778Z,99534.63
2023-07-16T08:57:53.577Z,99537.16
2023-07-16T09:00:24.530Z,99546.34
2023-07-16T09:02:55.295Z,99549.19
2023-07-16T09:05:39.041Z,99540.84
2023-07-16T09:08:09.892Z,99550.84
2023-07-16T09:10:40.031Z,99552.31
2023-07-16T09:13:09.567Z,99546.59
2023-07-16T09:15:41.158Z,99554.53
2023-07-16T09:18:12.506Z,99548.72
2023-07-16T09:20:42.816Z,99559.41
2023-07-16T09:23:12.158Z,99559.50
2023-07-16T09:25:42.849Z,99552.66
2023-07-16T09:28:12.641Z,99558.09
2023-07-16T09:30:42.398Z,99560.31
2023-07-16T09:33:21.613Z,99560.75
2023-07-16T09:35:52.158Z,99561.34
2023-07-16T09:38:21.684Z,99561.53
2023-07-16T09:40:51.652Z,99564.28
2023-07-16T09:43:22.964Z,99556.22
2023-07-16T09:45:53.011Z,99560.91
2023-07-16T09:48:22.600Z,99562.78
2023-07-16T09:50:54.618Z,99562.63
2023-07-16T09:53:27.777Z,99563.41
2023-07-16T09:55:59.165Z,99567.06
2023-07-16T09:58:28.067Z,99568.69
2023-07-16T10:00:57.669Z,99564.44
2023-07-16T10:03:27.306Z,99563.34
2023-07-16T10:05:56.636Z,99566.31
2023-07-16T10:08:26.362Z,99565.06
2023-07-16T10:10:58.944Z,99565.59
2023-07-16T10:13:29.493Z,99558.38
2023-07-16T10:16:00.063Z,99564.44
2023-07-16T10:18:33.938Z,99557.19
2023-07-16T10:21:09.225Z,99552.47
2023-07-16T10:23:43.309Z,99559.69
2023-07-16T10:26:18.271Z,99556.56
2023-07-16T10:28:49.817Z,99557.00
2023-07-16T10:31:28.114Z,99562.72
2023-07-16T10:34:02.248Z,99550.38
2023-07-16T10:36:32.155Z,99545.44
2023-07-16T10:39:05.893Z,99543.53
2023-07-16T10:41:34.736Z,99548.47
2023-07-16T10:44:04.741Z,99552.66
2023-07-16T10:46:35.299Z,99540.53
2023-07-16T10:49:05.090Z,99545.03
2023-07-16T10:51:34.661Z,99536.63
2023-07-16T10:54:07.107Z,99541.50
2023-07-16T10:56:39.730Z,99537.94
2023-07-16T10:59:13.193Z,99534.50
2023-07-16T11:01:43.587Z,99528.38
2023-07-16T11:04:13.015Z,99537.81
2023-07-16T11:06:42.623Z,99534.69
2023-07-16T11:09:12.685Z,99539.44
2023-07-16T11:11:42.561Z,99539.06
2023-07-16T11:14:12.132Z,99538.75
2023-07-16T11:16:41.833Z,99544.97
2023-07-16T11:19:11.460Z,99540.47
2023-07-16T11:21:41.000Z,99544.06
2023-07-16T11:24:17.189Z,99538.59
2023-07-16T11:26:53.799Z,99540.16
2023-07-16T11:29:24.122Z,99536.66
2023-07-16T11:31:54.734Z,99542.31
2023-07-16T11:34:24.598Z,99546.44
2023-07-16T11:36:54.373Z,99559.50
2023-07-16T11:39:23.434Z,99555.91
2023-07-16T11:42:00.015Z,99552.31
2023-07-16T11:44:38.618Z,99548.50
2023-07-16T11:47:08.556Z,99537.44
2023-07-16T11:49:37.959Z,99545.31
2023-07-16T11:52:10.192Z,99545.44
2023-07-16T11:54:39.904Z,99543.19
2023-07-16T11:57:10.153Z,99543.94
2023-07-16T11:59:39.579Z,99536.91
2023-07-16T12:02:09.600Z,99535.25
2023-07-16T12:04:39.032Z,99538.53
2023-07-16T12:07:09.658Z,99538.19
2023-07-16T12:09:39.253Z,99533.31
2023-07-16T12:12:11.563Z,99540.88
2023-07-16T12:14:41.212Z,99530.44
2023-07-16T12:17:10.691Z,99529.38
2023-07-16T12:19:40.577Z,99527.63
2023-07-16T12:22:10.332Z,99533.50
2023-07-16T12:24:40.088Z,99526.81
2023-07-16T12:27:10.367Z,99527.22
2023-07-16T12:29:40.634Z,99529.19
2023-07-16T12:32:11.257Z,99525.75
2023-07-16T12:34:41.039Z,99526.81
2023-07-16T12:37:10.693Z,99524.72
2023-07-16T12:39:41.255Z,99523.59
2023-07-16T12:42:11.069Z,99530.78
2023-07-16T12:44:40.542Z,99528.50
2023-07-16T12:47:10.316Z,99533.94
2023-07-16T12:49:40.039Z,99537.22
2023-07-16T12:52:10.563Z,99543.47
2023-07-16T12:54:40.739Z,99535.06
2023-07-16T12:57:10.340Z,99529.06
2023-07-16T12:59:39.712Z,99536.56
2023-07-16T13:02:09.567Z,99532.59
2023-07-16T13:04:39.332Z,99529.47
2023-07-16T13:07:09.141Z,99522.56
2023-07-16T13:09:38.877Z,99531.72
2023-07-16T13:12:10.426Z,99533.41
2023-07-16T13:14:40.224Z,99533.94
2023-07-16T13:17:10.131Z,99529.25
2023-07-16T13:19:39.826Z,99524.91
2023-07-16T13:22:09.373Z,99529.38
2023-07-16T13:24:39.776Z,99536.00
2023-07-16T13:27:11.878Z,99537.69
2023-07-16T13:29:41.467Z,99536.03
2023-07-16T13:32:11.489Z,99531.53
2023-07-16T13:34:41.310Z,99534.13
2023-07-16T13:37:11.371Z,99530.06
2023-07-16T13:39:41.217Z,99518.91
2023-07-16T13:42:22.642Z,99516.44
2023-07-16T13:44:53.553Z,99522.00
2023-07-16T13:47:23.500Z,99521.94
2023-07-16T13:49:53.691Z,99522.78
2023-07-16T13:52:23.091Z,99520.44
2023-07-16T13:54:52.996Z,99518.81
2023-07-16T13:57:22.720Z,99515.19
2023-07-16T13:59:52.600Z,99517.97
2023-07-16T14:02:22.034Z,99514.75
2023-07-16T14:04:51.639Z,99511.22
2023-07-16T14:07:22.215Z,99521.06
2023-07-16T14:09:52.046Z,99514.03
2023-07-16T14:12:21.337Z,99518.56
2023-07-16T14:14:50.776Z,99525.16
2023-07-16T14:17:20.791Z,99522.44
2023-07-16T14:19:52.110Z,99520.38
2023-07-16T14:22:23.271Z,99520.63
2023-07-16T14:24:52.847Z,99522.81
2023-07-16T14:27:22.508Z,99521.75
2023-07-16T14:30:05.161Z,99522.81
2023-07-16T14:32:36.861Z,99526.03
2023-07-16T14:35:18.645Z,99515.84
2023-07-16T14:37:55.435Z,99521.91
2023-07-16T14:40:25.309Z,99517.56
2023-07-16T14:42:54.772Z,99518.66
2023-07-16T14:45:24.427Z,99518.94
2023-07-16T14:47:54.415Z,99511.84
2023-07-16T14:50:25.501Z,99516.69
2023-07-16T14:52:56.098Z,99515.91
2023-07-16T14:55:25.763Z,99510.81
2023-07-16T14:57:55.835Z,99524.34
2023-07-16T15:00:26.309Z,99523.56
2023-07-16T15:02:56.319Z,99527.63
2023-07-16T15:05:26.050Z,99531.50
2023-07-16T15:07:55.779Z,99536.03
2023-07-16T15:10:25.448Z,99529.34
2023-07-16T15:12:55.195Z,99540.75
2023-07-16T15:15:25.021Z,99540.28
2023-07-16T15:17:54.664Z,99545.34
2023-07-16T15:20:25.657Z,99537.78
2023-07-16T15:22:55.541Z,99538.78
2023-07-16T15:25:26.584Z,99544.09
2023-07-16T15:27:56.544Z,99544.09
2023-07-16T15:30:26.248Z,99541.97
2023-07-16T15:32:55.697Z,99547.38
2023-07-16T15:35:25.393Z,99543.97
2023-07-16T15:37:55.253Z,99552.50
2023-07-16T15:40:24.661Z,99549.41
2023-07-16T15:42:55.071Z,99551.47
2023-07-16T15:45:24.991Z,99550.63
2023-07-16T15:47:58.889Z,99549.84
2023-07-16T15:50:29.706Z,99554.03
2023-07-16T15:52:59.166Z,99552.22
2023-07-16T15:55:29.176Z,99558.13
2023-07-16T15:58:00.333Z,99559.38
2023-07-16T16:00:30.030Z,99556.28
2023-07-16T16:03:00.563Z,99560.66
2023-07-16T16:05:31.557Z,99562.44
2023-07-16T16:08:19.997Z,99564.59
2023-07-16T16:10:54.511Z,99563.38
2023-07-16T16:13:24.869Z,99560.25
2023-07-16T16:15:54.153Z,99563.81
2023-07-16T16:18:25.366Z,99562.88
2023-07-16T16:20:54.936Z,99561.78
2023-07-16T16:23:24.518Z,99558.03
2023-07-16T16:25:54.203Z,99563.38
2023-07-16T16:28:24.621Z,99566.81
2023-07-16T16:30:54.450Z,99561.84
2023-07-16T16:33:24.132Z,99566.97
2023-07-16T16:35:53.579Z,99569.63
2023-07-16T16:38:23.245Z,99571.16
2023-07-16T16:40:53.049Z,99572.69
2023-07-16T16:43:22.403Z,99570.44
2023-07-16T16:45:52.609Z,99576.44
2023-07-16T16:48:21.983Z,99575.56
2023-07-16T16:50:53.710Z,99569.88
2023-07-16T16:53:24.632Z,99570.88
2023-07-16T16:55:54.143Z,99570.09
2023-07-16T16:58:23.995Z,99580.00
2023-07-16T17:00:57.370Z,99579.66
2023-07-16T17:03:27.233Z,99584.41
2023-07-16T17:06:01.886Z,99587.50
2023-07-16T17:08:31.710Z,99594.03
2023-07-16T17:11:01.336Z,99596.06
2023-07-16T17:13:31.060Z,99600.19
2023-07-16T17:16:00.968Z,99607.03
2023-07-16T17:18:30.882Z,99599.63
2023-07-16T17:21:00.676Z,99608.78
2023-07-16T17:23:30.264Z,99606.78
2023-07-16T17:25:59.942Z,99606.41
2023-07-16T17:28:29.265Z,99608.63
2023-07-16T17:31:01.892Z,99604.22
2023-07-16T17:33:31.718Z,99601.41
2023-07-16T17:36:01.196Z,99599.25
2023-07-16T17:38:31.458Z,99609.81
2023-07-16T17:41:00.856Z,99603.81
2023-07-16T17:43:33.122Z,99604.13
2023-07-16T17:46:03.425Z,99605.94
2023-07-16T17:48:34.132Z,99602.81
2023-07-16T17:51:04.139Z,99605.19
2023-07-16T17:53:34.139Z,99610.03
2023-07-16T17:56:04.001Z,99609.66
2023-07-16T17:58:36.441Z,99610.53
2023-07-16T18:01:07.329Z,99614.81
2023-07-16T18:03:37.019Z,99619.53
2023-07-16T18:06:06.728Z,99615.66
2023-07-16T18:08:36.673Z,99609.06
2023-07-16T18:11:06.108Z,99616.28
2023-07-16T18:13:35.844Z,99618.44
2023-07-16T18:16:06.125Z,99617.31
2023-07-16T18:18:36.185Z,99617.09
2023-07-16T18:21:13.269Z,99614.06
2023-07-16T18:23:47.929Z,99616.03
2023-07-16T18:26:18.166Z,99623.81
2023-07-16T18:28:48.758Z,99627.88
2023-07-16T18:31:18.659Z,99623.16
2023-07-16T18:33:48.416Z,99623.81
2023-07-16T18:36:18.339Z,99620.91
2023-07-16T18:38:48.231Z,99618.72
2023-07-16T18:41:18.436Z,99630.47
2023-07-16T18:43:48.364Z,99630.41
2023-07-16T18:46:18.375Z,99630.50
2023-07-16T18:48:48.440Z,99630.47
2023-07-16T18:51:18.333Z,99629.69
2023-07-16T18:53:47.901Z,99637.00
2023-07-16T18:56:18.108Z,99637.31
2023-07-16T18:58:47.794Z,99635.72
2023-07-16T19:01:17.710Z,99637.75
2023-07-16T19:03:48.633Z,99630.03
2023-07-16T19:06:18.172Z,99629.91
2023-07-16T19:08:48.341Z,99632.78
2023-07-16T19:11:17.745Z,99641.09
2023-07-16T19:13:47.372Z,99636.19
2023-07-16T19:16:17.177Z,99634.56
2023-07-16T19:18:47.390Z,99635.69
2023-07-16T19:21:16.929Z,99635.88
2023-07-16T19:23:46.470Z,99633.38
2023-07-16T19:26:16.639Z,99637.56
2023-07-16T19:28:46.655Z,99634.00
2023-07-16T19:31:17.307Z,99638.53
2023-07-16T19:33:47.195Z,99641.13
2023-07-16T19:36:17.085Z,99636.91
2023-07-16T19:38:46.771Z,99643.91
2023-07-16T19:41:16.978Z,99639.69
2023-07-16T19:43:46.897Z,99642.31
2023-07-16T19:46:16.703Z,99639.53
2023-07-16T19:48:47.008Z,99636.03
2023-07-16T19:51:16.926Z,99631.06
2023-07-16T19:53:46.768Z,99637.41
2023-07-16T19:56:16.759Z,99635.88
2023-07-16T19:58:46.412Z,99636.94
2023-07-16T20:01:17.124Z,99641.59
2023-07-16T20:03:49.525Z,99633.28
2023-07-16T20:06:19.745Z,99633.50
2023-07-16T20:08:52.371Z,99637.13
2023-07-16T20:11:21.976Z,99634.50
2023-07-16T20:13:51.800Z,99635.31
2023-07-16T20:16:21.505Z,99625.66
2023-07-16T20:18:50.880Z,99629.09
2023-07-16T20:21:23.024Z,99631.50
2023-07-16T20:23:53.657Z,99632.41
2023-07-16T20:26:23.399Z,99631.50
2023-07-16T20:28:53.325Z,99631.59
2023-07-16T20:31:22.888Z,99634.22
2023-07-16T20:33:52.457Z,99629.09
2023-07-16T20:36:22.106Z,99627.59
2023-07-16T20:38:51.856Z,99622.75
2023-07-16T20:41:22.219Z,99628.22
2023-07-16T20:43:51.868Z,99630.94
2023-07-16T20:46:21.751Z,99628.44
2023-07-16T20:48:51.264Z,99628.31
2023-07-16T20:51:20.891Z,99631.66
2023-07-16T20:53:50.790Z,99633.38
2023-07-16T20:56:20.443Z,99629.78
2023-07-16T20:58:49.817Z,99632.34
2023-07-16T21:01:19.810Z,99632.56
2023-07-16T21:03:51.262Z,99635.84
2023-07-16T21:06:20.765Z,99629.72
2023-07-16T21:08:50.545Z,99631.34
2023-07-16T21:11:20.794Z,99636.69
2023-07-16T21:13:50.468Z,99644.84
2023-07-16T21:16:20.325Z,99636.91
2023-07-16T21:18:50.078Z,99644.06
2023-07-16T21:21:20.341Z,99642.41
2023-07-16T21:23:49.906Z,99647.03
2023-07-16T21:26:19.746Z,99638.44
2023-07-16T21:28:49.475Z,99643.69
2023-07-16T21:31:19.560Z,99637.84
2023-07-16T21:33:49.872Z,99645.88
2023-07-16T21:36:19.556Z,99634.59
2023-07-16T21:38:49.373Z,99638.16
2023-07-16T21:41:18.967Z,99639.81
2023-07-16T21:43:49.088Z,99637.91
2023-07-16T21:46:19.801Z,99639.72
2023-07-16T21:48:49.269Z,99647.22
2023-07-16T21:51:19.285Z,99641.97
2023-07-16T21:53:49.284Z,99639.63
2023-07-16T21:56:19.070Z,99636.19
2023-07-16T21:58:48.703Z,99634.59
2023-07-16T22:01:19.769Z,99632.16
2023-07-16T22:03:49.476Z,99643.56
2023-07-16T22:06:19.239Z,99641.56
2023-07-16T22:08:49.025Z,99635.28
2023-07-16T22:11:19.133Z,99631.59
2023-07-16T22:13:50.567Z,99631.59
2023-07-16T22:16:20.505Z,99638.66
2023-07-16T22:18:50.229Z,99627.56
2023-07-16T22:21:21.712Z,99637.34
2023-07-16T22:23:51.633Z,99627.91
2023-07-16T22:26:22.240Z,99635.91
2023-07-16T22:28:52.324Z,99633.47
2023-07-16T22:31:21.935Z,99636.88
2023-07-16T22:33:51.805Z,99631.75
2023-07-16T22:36:21.639Z,99636.91
2023-07-16T22:38:51.389Z,99633.28
2023-07-16T22:41:21.066Z,99629.03
2023-07-16T22:43:50.487Z,99620.16
2023-07-16T22:46:20.569Z,99641.94
2023-07-16T22:48:54.889Z,99631.66
2023-07-16T22:51:25.070Z,99637.53
2023-07-16T22:53:54.824Z,99632.91
2023-07-16T22:56:25.247Z,99633.25
2023-07-16T22:58:55.355Z,99638.78
2023-07-16T23:01:25.056Z,99633.41
2023-07-16T23:03:54.922Z,99634.00
2023-07-16T23:06:24.357Z,99633.72
2023-07-16T23:08:54.105Z,99632.28
2023-07-16T23:11:23.796Z,99636.78
2023-07-16T23:13:53.671Z,99636.78
2023-07-16T23:16:23.290Z,99633.19
2023-07-16T23:18:53.210Z,99635.91
2023-07-16T23:21:23.000Z,99640.31
2023-07-16T23:23:52.633Z,99637.88
2023-07-16T23:26:22.093Z,99642.31
2023-07-16T23:28:51.897Z,99649.66
2023-07-16T23:31:22.028Z,99643.63
2023-07-16T23:33:51.866Z,99643.69
2023-07-16T23:36:21.147Z,99646.34
2023-07-16T23:38:52.120Z,99643.63
2023-07-16T23:41:21.578Z,99640.03
2023-07-16T23:43:51.069Z,99638.56
2023-07-16T23:46:21.318Z,99636.84
2023-07-16T23:48:51.024Z,99639.66
2023-07-16T23:51:20.870Z,99635.31
2023-07-16T23:53:50.649Z,99642.09
2023-07-16T23:56:20.466Z,99641.38
2023-07-16T23:58:51.356Z,99631.16
